Time;durP1;ratioP1;P1;durP2;ratioP2;P2;SDS_P1;SDS_P2;PMS_P1;PMS_P2;Temp;Humidity;BMP_temperature;BMP_pressure;BME280_temperature;BME280_humidity;BME280_pressure;Samples;Min_cycle;Max_cycle;Signal;HPM_P1;HPM_P2
2021/12/16 00:01:45;;;;;;;7.43;3.45;;;9.80;94.10;;;;;;4940446;29;20106;-83
2021/12/16 00:04:11;;;;;;;7.40;3.60;;;9.60;94.30;;;;;;4980261;28;20054;-83
2021/12/16 00:06:56;;;;;;;7.07;3.42;;;9.60;94.00;;;;;;5003821;28;20423;-83
2021/12/16 00:09:15;;;;;;;7.38;3.67;;;9.70;94.10;;;;;;5049238;28;20105;-83
2021/12/16 00:31:29;;;;;;;9.68;4.55;;;9.70;94.10;;;;;;5102429;28;20031;-83
2021/12/16 00:33:43;;;;;;;8.45;4.25;;;9.70;94.10;;;;;;5099731;28;20046;-83
2021/12/16 00:36:32;;;;;;;8.63;3.95;;;9.50;94.10;;;;;;5082264;28;20488;-83
2021/12/16 00:39:04;;;;;;;8.18;4.32;;;9.60;94.10;;;;;;5015535;28;20092;-83
2021/12/16 00:41:41;;;;;;;8.73;3.97;;;9.50;94.10;;;;;;5032679;28;20449;-84
2021/12/16 00:45:01;;;;;;;8.77;4.57;;;9.60;94.10;;;;;;5001908;28;20522;-83
2021/12/16 00:47:50;;;;;;;10.13;4.30;;;9.50;94.10;;;;;;5018604;28;20041;-83
2021/12/16 00:56:23;;;;;;;15.20;5.75;;;9.40;94.00;;;;;;4980201;28;20282;-83
2021/12/16 01:05:17;;;;;;;9.68;4.30;;;9.40;94.00;;;;;;4876576;29;20522;-84
2021/12/16 01:08:09;;;;;;;7.80;4.10;;;9.40;94.00;;;;;;4854864;29;20045;-83
2021/12/16 01:42:09;;;;;;;9.50;4.28;;;9.50;94.10;;;;;;4977616;28;20042;-83
2021/12/16 01:49:36;;;;;;;9.52;4.05;;;9.40;94.10;;;;;;4977534;28;20119;-84
2021/12/16 01:52:26;;;;;;;8.00;3.47;;;9.50;94.20;;;;;;4978016;28;20142;-84
2021/12/16 01:55:03;;;;;;;7.68;3.70;;;9.30;94.20;;;;;;4986144;28;20515;-84
2021/12/16 01:57:35;;;;;;;6.30;3.70;;;9.40;94.20;;;;;;4963190;28;20038;-84
2021/12/16 02:00:10;;;;;;;8.32;3.53;;;9.40;94.20;;;;;;4959045;28;20042;-84
2021/12/16 02:02:45;;;;;;;9.15;4.15;;;9.40;94.20;;;;;;4959385;28;20042;-84
2021/12/16 02:05:31;;;;;;;9.43;4.45;;;9.40;94.20;;;;;;5013279;28;20435;-83
2021/12/16 02:11:01;;;;;;;7.57;3.80;;;9.50;94.20;;;;;;4995967;28;20095;-84
2021/12/16 02:27:16;;;;;;;7.50;3.13;;;9.40;94.20;;;;;;4992321;28;20055;-84
2021/12/16 02:35:13;;;;;;;7.47;3.53;;;9.30;94.30;;;;;;5082229;28;20051;-84
2021/12/16 02:37:46;;;;;;;7.40;3.25;;;9.20;94.30;;;;;;5097468;28;20488;-84
2021/12/16 02:40:13;;;;;;;6.18;2.70;;;9.30;94.30;;;;;;5061285;28;20497;-84
2021/12/16 02:42:54;;;;;;;6.82;3.17;;;9.20;94.30;;;;;;5094804;28;20093;-83
2021/12/16 02:50:39;;;;;;;5.90;2.60;;;9.20;94.40;;;;;;5097278;28;20028;-84
2021/12/16 02:53:05;;;;;;;5.88;2.70;;;9.20;94.40;;;;;;5061670;28;20044;-83
2021/12/16 02:55:31;;;;;;;7.47;3.33;;;9.20;94.40;;;;;;5079664;28;20051;-84
2021/12/16 02:58:00;;;;;;;7.53;3.08;;;9.20;94.40;;;;;;5078181;28;20050;-84
2021/12/16 03:00:30;;;;;;;6.05;3.13;;;9.20;94.40;;;;;;5061949;28;20122;-83
2021/12/16 03:02:56;;;;;;;7.57;3.50;;;9.20;94.40;;;;;;5078215;28;20035;-84
2021/12/16 03:05:25;;;;;;;7.03;2.97;;;9.10;94.30;;;;;;5078093;28;20048;-84
2021/12/16 03:08:02;;;;;;;7.07;3.03;;;9.10;94.30;;;;;;5077258;28;20055;-84
2021/12/16 03:10:59;;;;;;;7.07;2.92;;;9.10;94.40;;;;;;4990475;28;20042;-84
2021/12/16 03:13:25;;;;;;;6.78;3.15;;;9.00;94.40;;;;;;4976424;28;20030;-84
2021/12/16 03:16:09;;;;;;;4.72;2.42;;;9.10;94.40;;;;;;4959940;28;20137;-84
2021/12/16 03:18:53;;;;;;;6.15;2.78;;;9.10;94.40;;;;;;4903137;29;20521;-84
2021/12/16 03:21:27;;;;;;;6.10;2.85;;;9.00;94.40;;;;;;4892025;29;20126;-84
2021/12/16 03:27:06;;;;;;;6.15;2.90;;;9.00;94.40;;;;;;4932386;29;20039;-84
2021/12/16 03:37:19;;;;;;;6.85;3.20;;;8.90;94.40;;;;;;5036953;28;20166;-83
2021/12/16 03:40:02;;;;;;;5.05;2.42;;;8.90;94.50;;;;;;5017015;28;20127;-83
2021/12/16 03:42:38;;;;;;;5.93;2.85;;;8.80;94.50;;;;;;5018480;28;20465;-83
2021/12/16 03:47:57;;;;;;;4.22;2.20;;;8.80;94.50;;;;;;5033092;28;20041;-83
2021/12/16 03:50:23;;;;;;;3.80;2.05;;;8.90;94.50;;;;;;5076155;28;20481;-83
2021/12/16 03:52:56;;;;;;;7.13;2.70;;;8.90;94.50;;;;;;5077170;28;20099;-85
2021/12/16 03:55:30;;;;;;;4.93;2.53;;;8.90;94.50;;;;;;4992786;28;20045;-85
2021/12/16 03:57:56;;;;;;;6.80;2.70;;;8.90;94.50;;;;;;4977365;28;20140;-84
2021/12/16 04:00:30;;;;;;;6.57;3.10;;;8.90;94.50;;;;;;4993695;28;20134;-85
2021/12/16 04:03:01;;;;;;;6.47;3.15;;;8.90;94.50;;;;;;4976166;28;20076;-84
2021/12/16 04:05:30;;;;;;;5.35;2.40;;;8.90;94.50;;;;;;4959554;28;20447;-84
2021/12/16 04:07:58;;;;;;;5.72;2.38;;;9.00;94.50;;;;;;4979143;28;20049;-84
2021/12/16 04:10:33;;;;;;;6.35;2.70;;;9.00;94.50;;;;;;4977001;28;20070;-84
2021/12/16 04:13:02;;;;;;;5.57;2.60;;;8.90;94.40;;;;;;4960630;28;20034;-84
2021/12/16 04:15:29;;;;;;;5.78;2.90;;;8.90;94.40;;;;;;4958051;28;20057;-85
2021/12/16 04:17:55;;;;;;;6.03;2.83;;;8.90;94.40;;;;;;4960076;28;20508;-84
2021/12/16 04:20:21;;;;;;;8.00;3.15;;;9.10;94.50;;;;;;4955882;28;20042;-85
2021/12/16 04:22:47;;;;;;;6.38;2.83;;;8.90;94.40;;;;;;4957531;28;20085;-84
2021/12/16 04:25:18;;;;;;;5.50;2.53;;;8.90;94.40;;;;;;4977416;28;20428;-84
2021/12/16 04:27:46;;;;;;;7.47;3.40;;;9.00;94.40;;;;;;4999834;28;20049;-84
2021/12/16 04:30:20;;;;;;;7.88;3.75;;;9.00;94.40;;;;;;4999716;28;20084;-84
2021/12/16 04:32:46;;;;;;;6.82;3.28;;;9.00;94.40;;;;;;5005754;28;20041;-84
2021/12/16 04:35:12;;;;;;;7.70;3.58;;;9.00;94.30;;;;;;5097001;28;20397;-84
2021/12/16 04:37:39;;;;;;;7.43;3.80;;;9.10;94.40;;;;;;5063312;28;20128;-84
2021/12/16 04:40:09;;;;;;;8.45;3.83;;;8.90;94.30;;;;;;5079771;28;20092;-84
2021/12/16 04:42:38;;;;;;;9.63;4.72;;;8.90;94.30;;;;;;5080181;28;20127;-84
2021/12/16 04:45:08;;;;;;;12.35;5.40;;;8.90;94.30;;;;;;5064870;28;20108;-84
2021/12/16 04:47:34;;;;;;;10.85;4.75;;;8.90;94.30;;;;;;5115001;28;20039;-84
2021/12/16 04:50:00;;;;;;;11.32;4.65;;;9.00;94.30;;;;;;5082322;28;20039;-83
2021/12/16 04:52:29;;;;;;;8.68;4.40;;;8.90;94.30;;;;;;5096790;28;20115;-84
2021/12/16 04:54:55;;;;;;;9.50;4.35;;;8.90;94.30;;;;;;5036142;28;20037;-83
2021/12/16 04:57:21;;;;;;;9.82;4.20;;;8.90;94.30;;;;;;5035445;28;20129;-84
2021/12/16 04:59:47;;;;;;;8.77;4.30;;;8.90;94.30;;;;;;5035276;28;20552;-84
2021/12/16 05:02:18;;;;;;;7.32;3.63;;;8.90;94.30;;;;;;5018884;28;20040;-84
2021/12/16 05:04:44;;;;;;;8.18;4.05;;;8.90;94.30;;;;;;5021741;28;20037;-84
2021/12/16 05:07:11;;;;;;;8.05;3.80;;;8.90;94.30;;;;;;5035775;28;20128;-84
2021/12/16 05:12:26;;;;;;;9.18;3.60;;;8.90;94.30;;;;;;5025143;28;20065;-84
2021/12/16 05:14:54;;;;;;;11.52;4.47;;;8.80;94.30;;;;;;5018729;28;20033;-84
2021/12/16 05:17:26;;;;;;;10.15;3.60;;;8.90;94.40;;;;;;5035598;28;20506;-83
2021/12/16 05:19:53;;;;;;;8.90;3.47;;;8.90;94.40;;;;;;5019384;28;20041;-84
2021/12/16 05:25:10;;;;;;;8.25;3.42;;;8.80;94.40;;;;;;5046459;28;20036;-84
2021/12/16 05:27:36;;;;;;;8.32;3.33;;;8.80;94.40;;;;;;5063103;28;20517;-84
2021/12/16 05:30:09;;;;;;;8.82;3.10;;;8.80;94.40;;;;;;5079359;28;20040;-84
2021/12/16 05:32:35;;;;;;;7.22;3.30;;;8.80;94.40;;;;;;5079680;28;20135;-84
2021/12/16 05:35:01;;;;;;;7.57;3.17;;;8.80;94.40;;;;;;5062377;28;20063;-84
2021/12/16 05:37:30;;;;;;;7.13;2.88;;;8.80;94.40;;;;;;5056927;28;20060;-84
2021/12/16 05:39:58;;;;;;;7.97;3.30;;;8.80;94.50;;;;;;5021908;28;20106;-84
2021/12/16 05:42:24;;;;;;;6.72;2.92;;;8.80;94.50;;;;;;5038100;28;20064;-83
2021/12/16 05:44:49;;;;;;;6.18;3.05;;;8.70;94.40;;;;;;5066104;28;20036;-83
2021/12/16 05:47:15;;;;;;;6.90;3.00;;;8.90;94.50;;;;;;5023281;28;20052;-84
2021/12/16 05:49:44;;;;;;;9.77;3.28;;;8.70;94.50;;;;;;5054575;28;20044;-84
2021/12/16 05:52:09;;;;;;;7.57;3.30;;;8.70;94.50;;;;;;4975835;28;20046;-84
2021/12/16 05:54:35;;;;;;;9.85;2.95;;;8.80;94.50;;;;;;4958491;28;20054;-84
2021/12/16 05:57:01;;;;;;;7.57;2.90;;;8.70;94.50;;;;;;4943865;28;20045;-85
2021/12/16 05:59:27;;;;;;;7.40;3.15;;;8.60;94.50;;;;;;4959778;28;20096;-85
2021/12/16 06:01:53;;;;;;;6.40;2.55;;;8.70;94.50;;;;;;4944133;28;20074;-84
2021/12/16 06:04:20;;;;;;;9.13;2.83;;;8.70;94.50;;;;;;4959967;28;20073;-83
2021/12/16 06:06:46;;;;;;;6.18;2.90;;;8.70;94.50;;;;;;4946076;28;20042;-83
2021/12/16 06:09:12;;;;;;;6.18;2.42;;;8.60;94.50;;;;;;4973768;28;20049;-83
2021/12/16 06:11:42;;;;;;;5.38;2.38;;;8.60;94.50;;;;;;5014954;28;20037;-84
2021/12/16 06:14:28;;;;;;;4.97;2.33;;;8.80;94.60;;;;;;5014528;28;20048;-85
2021/12/16 06:27:37;;;;;;;5.22;2.40;;;8.60;94.60;;;;;;5057616;28;20079;-85
2021/12/16 06:30:09;;;;;;;6.30;2.40;;;8.60;94.60;;;;;;5066575;28;20032;-85
2021/12/16 06:32:36;;;;;;;5.75;2.90;;;8.60;94.60;;;;;;5080706;28;20039;-83
2021/12/16 06:35:04;;;;;;;5.38;2.72;;;8.50;94.60;;;;;;5078038;28;20067;-83
2021/12/16 06:37:30;;;;;;;5.40;2.45;;;8.50;94.60;;;;;;5094680;28;20813;-84
2021/12/16 06:39:56;;;;;;;4.75;2.20;;;8.50;94.60;;;;;;5061317;28;20485;-84
2021/12/16 06:42:24;;;;;;;5.05;2.13;;;8.50;94.60;;;;;;5061437;28;20035;-84
2021/12/16 06:44:55;;;;;;;4.75;2.30;;;8.50;94.60;;;;;;5063559;28;20035;-84
2021/12/16 06:47:28;;;;;;;5.05;2.55;;;8.40;94.60;;;;;;5078733;28;20135;-83
2021/12/16 06:49:55;;;;;;;5.57;2.30;;;8.40;94.60;;;;;;5063245;28;20043;-83
2021/12/16 06:52:27;;;;;;;3.63;1.60;;;8.40;94.60;;;;;;5094557;28;20042;-83
2021/12/16 06:55:06;;;;;;;3.40;1.73;;;8.40;94.70;;;;;;5079851;28;20092;-82
2021/12/16 06:57:40;;;;;;;2.78;1.40;;;8.40;94.70;;;;;;5098275;28;20082;-81
2021/12/16 07:00:17;;;;;;;3.47;1.52;;;8.50;94.70;;;;;;5078799;28;20040;-82
2021/12/16 07:03:06;;;;;;;2.15;1.13;;;8.40;94.60;;;;;;5097614;28;20043;-82
2021/12/16 07:05:36;;;;;;;4.75;1.88;;;8.40;94.70;;;;;;5081365;28;20051;-78
2021/12/16 07:08:06;;;;;;;4.85;1.63;;;8.50;94.70;;;;;;5096052;28;20048;-82
2021/12/16 07:10:45;;;;;;;4.13;1.83;;;8.40;94.60;;;;;;5094600;28;20508;-82
2021/12/16 07:13:18;;;;;;;3.67;1.88;;;8.50;94.70;;;;;;5069496;28;20023;-79
2021/12/16 07:15:46;;;;;;;2.88;1.52;;;8.40;94.70;;;;;;5068830;28;20047;-81
2021/12/16 07:18:13;;;;;;;2.80;1.65;;;8.40;94.70;;;;;;5083868;28;20139;-80
2021/12/16 07:20:38;;;;;;;3.25;1.58;;;8.30;94.60;;;;;;5080757;28;20555;-80
2021/12/16 07:23:06;;;;;;;4.13;1.83;;;8.40;94.70;;;;;;5098338;28;20071;-80
2021/12/16 07:25:34;;;;;;;2.42;1.50;;;8.40;94.70;;;;;;5089636;28;20048;-80
2021/12/16 07:28:03;;;;;;;2.80;1.60;;;8.40;94.60;;;;;;5057596;28;20040;-82
2021/12/16 07:30:31;;;;;;;2.45;1.40;;;8.40;94.70;;;;;;5042607;28;20032;-82
2021/12/16 07:33:00;;;;;;;2.85;1.60;;;8.50;94.70;;;;;;5058153;28;20040;-82
2021/12/16 07:35:32;;;;;;;3.45;1.70;;;8.40;94.70;;;;;;5058064;28;20089;-82
2021/12/16 07:38:05;;;;;;;2.53;1.20;;;8.30;94.70;;;;;;5090375;28;20052;-82
2021/12/16 07:40:31;;;;;;;3.90;1.45;;;8.40;94.70;;;;;;5040135;28;20051;-82
2021/12/16 07:43:12;;;;;;;3.42;1.42;;;8.40;94.70;;;;;;5056371;28;20130;-78
2021/12/16 07:45:42;;;;;;;4.72;1.50;;;8.30;94.70;;;;;;5066265;28;20052;-83
2021/12/16 07:48:09;;;;;;;3.40;1.70;;;8.40;94.70;;;;;;5083142;28;20039;-82
2021/12/16 07:50:35;;;;;;;3.88;1.77;;;8.50;94.80;;;;;;5113724;28;20039;-81
2021/12/16 07:53:01;;;;;;;3.25;1.77;;;8.30;94.70;;;;;;5095490;28;20047;-80
2021/12/16 07:55:27;;;;;;;3.78;1.80;;;8.40;94.70;;;;;;5077105;28;20043;-80
2021/12/16 07:57:55;;;;;;;4.78;2.00;;;8.40;94.80;;;;;;5077252;28;20043;-80
2021/12/16 08:00:26;;;;;;;4.68;2.10;;;8.30;95.00;;;;;;5080570;28;20039;-80
2021/12/16 08:02:53;;;;;;;3.45;1.38;;;8.30;94.70;;;;;;5097389;28;20454;-80
2021/12/16 08:05:22;;;;;;;6.18;2.00;;;8.30;94.70;;;;;;5081020;28;20067;-79
2021/12/16 08:07:49;;;;;;;3.47;1.80;;;8.40;94.70;;;;;;5098123;28;20054;-79
2021/12/16 08:10:21;;;;;;;4.68;2.05;;;8.30;94.70;;;;;;5080558;28;20047;-79
2021/12/16 08:12:46;;;;;;;5.43;1.90;;;8.30;94.70;;;;;;5080725;28;20047;-79
2021/12/16 08:15:15;;;;;;;4.80;2.13;;;8.30;94.70;;;;;;5080305;28;20048;-79
2021/12/16 08:17:42;;;;;;;5.40;2.20;;;8.30;94.70;;;;;;5097632;28;20126;-79
2021/12/16 08:20:10;;;;;;;4.22;2.28;;;8.30;94.70;;;;;;5063721;28;20397;-80
2021/12/16 08:22:37;;;;;;;4.82;1.95;;;8.20;94.70;;;;;;5095730;28;20112;-79
2021/12/16 08:25:05;;;;;;;6.53;2.25;;;8.20;94.70;;;;;;5099827;28;20481;-80
2021/12/16 08:27:33;;;;;;;4.63;2.20;;;8.20;94.70;;;;;;5081377;28;20376;-80
2021/12/16 08:29:59;;;;;;;3.50;1.52;;;8.20;94.70;;;;;;5097495;28;20868;-80
2021/12/16 08:32:25;;;;;;;3.28;1.85;;;8.20;94.70;;;;;;5096938;28;20035;-81
2021/12/16 08:34:51;;;;;;;4.65;1.90;;;8.20;94.70;;;;;;5063415;28;20047;-80
2021/12/16 08:37:16;;;;;;;5.07;2.03;;;8.20;94.70;;;;;;5097185;28;20050;-79
2021/12/16 08:39:44;;;;;;;5.05;2.33;;;8.20;95.00;;;;;;5096907;28;20077;-81
2021/12/16 08:42:10;;;;;;;3.67;1.70;;;8.10;94.70;;;;;;5115186;28;20175;-80
2021/12/16 08:44:37;;;;;;;3.55;1.70;;;8.20;94.70;;;;;;5063465;28;20036;-80
2021/12/16 08:47:09;;;;;;;5.40;2.05;;;8.30;94.70;;;;;;5098610;28;20127;-81
2021/12/16 08:49:36;;;;;;;6.30;1.95;;;8.30;94.70;;;;;;5115114;28;20043;-81
2021/12/16 08:52:37;;;;;;;3.88;1.90;;;8.40;94.60;;;;;;5054600;28;20036;-80
2021/12/16 08:55:15;;;;;;;2.97;1.42;;;8.20;94.60;;;;;;5053808;28;20032;-80
2021/12/16 08:57:47;;;;;;;5.70;1.98;;;8.30;94.70;;;;;;5056122;28;20056;-81
2021/12/16 09:00:22;;;;;;;3.63;1.95;;;8.20;94.60;;;;;;4975426;28;20480;-81
2021/12/16 09:02:48;;;;;;;3.83;1.80;;;8.30;94.70;;;;;;4975676;28;20054;-79
2021/12/16 09:05:14;;;;;;;3.92;1.67;;;8.30;94.60;;;;;;4988246;28;20046;-82
2021/12/16 09:07:51;;;;;;;4.07;1.83;;;8.40;94.70;;;;;;4997712;28;20043;-82
2021/12/16 09:10:23;;;;;;;3.88;1.90;;;8.40;94.70;;;;;;4935073;29;20047;-81
2021/12/16 09:13:00;;;;;;;3.78;1.80;;;8.40;94.70;;;;;;4954260;28;20051;-81
2021/12/16 09:15:34;;;;;;;3.78;1.70;;;8.30;94.60;;;;;;4938995;29;20187;-82
2021/12/16 09:18:01;;;;;;;4.97;2.00;;;8.40;94.60;;;;;;4899995;29;20044;-81
2021/12/16 09:20:27;;;;;;;5.95;2.20;;;8.40;94.60;;;;;;4900058;29;20582;-81
2021/12/16 09:22:53;;;;;;;4.40;2.03;;;8.40;94.60;;;;;;4915428;29;20048;-81
2021/12/16 09:25:25;;;;;;;6.20;1.98;;;8.50;94.60;;;;;;4943309;28;20070;-83
2021/12/16 09:28:01;;;;;;;3.80;1.70;;;8.50;94.60;;;;;;4939680;29;20073;-82
2021/12/16 09:30:42;;;;;;;4.80;2.08;;;8.40;94.60;;;;;;4946587;28;20213;-82
2021/12/16 09:33:14;;;;;;;5.95;2.28;;;8.40;94.60;;;;;;4976637;28;20050;-82
2021/12/16 09:35:43;;;;;;;3.85;1.80;;;8.50;94.50;;;;;;5014867;28;20099;-81
2021/12/16 09:38:11;;;;;;;4.03;1.80;;;8.50;94.50;;;;;;5057174;28;20052;-81
2021/12/16 09:40:46;;;;;;;3.78;1.80;;;8.50;94.50;;;;;;5051682;28;20079;-81
2021/12/16 09:43:55;;;;;;;4.15;2.10;;;8.50;94.50;;;;;;5051585;28;20131;-85
2021/12/16 09:50:18;;;;;;;4.38;1.70;;;8.60;94.50;;;;;;5081394;28;20035;-83
2021/12/16 10:07:33;;;;;;;3.55;1.73;;;8.70;94.50;;;;;;4783546;29;20073;-86
2021/12/16 10:10:34;;;;;;;4.60;1.50;;;8.70;94.40;;;;;;4789169;29;20043;-81
2021/12/16 10:13:04;;;;;;;4.90;1.48;;;8.60;94.40;;;;;;4774477;30;20098;-82
2021/12/16 10:18:36;;;;;;;3.38;1.63;;;8.60;94.50;;;;;;4765058;29;20055;-83
2021/12/16 10:21:05;;;;;;;2.45;1.35;;;8.60;94.50;;;;;;4771061;29;20517;-80
2021/12/16 10:23:35;;;;;;;2.53;1.27;;;8.60;94.50;;;;;;4778436;29;20102;-80
2021/12/16 10:26:28;;;;;;;3.03;1.52;;;8.70;94.60;;;;;;4786691;29;20059;-84
2021/12/16 10:33:20;;;;;;;3.25;1.40;;;8.80;94.50;;;;;;4696076;30;20050;-82
2021/12/16 10:36:38;;;;;;;3.20;1.48;;;8.80;94.50;;;;;;4715268;30;20053;-81
2021/12/16 10:39:12;;;;;;;2.47;1.27;;;8.80;94.50;;;;;;4738950;30;20109;-82
2021/12/16 10:42:32;;;;;;;3.20;1.50;;;8.70;94.40;;;;;;4765744;30;20078;-82
2021/12/16 10:44:58;;;;;;;4.53;1.58;;;8.70;94.50;;;;;;4896020;29;20048;-82
2021/12/16 10:47:24;;;;;;;3.53;1.58;;;8.70;94.50;;;;;;4887672;29;20047;-84
2021/12/16 10:49:56;;;;;;;5.30;1.70;;;8.80;94.50;;;;;;4896178;29;20117;-86
2021/12/16 10:56:04;;;;;;;4.15;1.50;;;8.70;94.50;;;;;;4858129;29;20049;-84
2021/12/16 10:58:55;;;;;;;3.45;1.60;;;8.70;94.50;;;;;;4832016;29;20109;-83
2021/12/16 11:01:56;;;;;;;3.30;1.55;;;8.80;94.50;;;;;;4858664;29;20053;-83
2021/12/16 11:04:41;;;;;;;3.63;1.77;;;8.70;94.50;;;;;;4973685;28;20052;-84
2021/12/16 11:07:26;;;;;;;3.35;1.50;;;8.70;94.50;;;;;;4937940;29;20054;-82
2021/12/16 11:10:16;;;;;;;6.38;1.90;;;8.60;94.50;;;;;;4934153;29;20043;-81
2021/12/16 11:12:53;;;;;;;4.47;2.17;;;8.70;94.60;;;;;;4946649;29;20053;-81
2021/12/16 11:15:37;;;;;;;5.32;1.98;;;8.60;94.50;;;;;;4938695;29;20422;-80
2021/12/16 11:21:53;;;;;;;5.28;2.30;;;8.50;94.50;;;;;;4907012;29;20051;-79
2021/12/16 11:24:24;;;;;;;4.07;1.80;;;8.50;94.60;;;;;;4858330;29;20064;-80
2021/12/16 11:27:32;;;;;;;3.65;1.83;;;8.60;94.60;;;;;;4859330;29;20068;-84
2021/12/16 11:30:29;;;;;;;4.13;2.00;;;8.60;94.60;;;;;;4839053;29;20046;-85
2021/12/16 11:49:01;;;;;;;3.28;1.80;;;8.70;94.50;;;;;;4897449;29;20534;-85
2021/12/16 11:51:58;;;;;;;4.00;1.65;;;8.70;94.50;;;;;;4858898;29;20077;-81
2021/12/16 11:55:22;;;;;;;4.53;1.92;;;8.70;94.50;;;;;;4883453;29;20545;-83
2021/12/16 11:58:03;;;;;;;5.32;2.20;;;8.80;94.50;;;;;;4899617;29;20059;-82
2021/12/16 12:04:11;;;;;;;4.03;1.60;;;8.70;94.50;;;;;;4848655;29;20109;-81
2021/12/16 12:10:59;;;;;;;3.50;1.52;;;8.70;94.50;;;;;;4827139;29;20053;-84
2021/12/16 12:13:30;;;;;;;3.42;1.70;;;8.80;94.40;;;;;;4852894;29;20049;-79
2021/12/16 12:16:08;;;;;;;3.30;1.40;;;8.80;94.40;;;;;;4854502;29;20043;-80
2021/12/16 12:18:42;;;;;;;4.18;1.80;;;8.80;94.50;;;;;;4857673;29;20041;-80
2021/12/16 12:21:41;;;;;;;3.15;1.58;;;9.00;94.50;;;;;;4842370;29;20045;-80
2021/12/16 12:24:11;;;;;;;3.88;1.73;;;8.90;94.50;;;;;;4925019;29;20167;-80
2021/12/16 12:26:43;;;;;;;6.07;1.50;;;8.90;94.50;;;;;;4996454;28;20077;-81
2021/12/16 12:29:13;;;;;;;3.83;1.70;;;8.90;94.40;;;;;;4980529;28;20042;-79
2021/12/16 12:31:43;;;;;;;1.75;1.20;;;8.90;94.50;;;;;;4990652;28;20070;-78
2021/12/16 12:34:45;;;;;;;2.83;1.20;;;9.00;94.50;;;;;;5008117;28;20131;-79
2021/12/16 12:37:42;;;;;;;3.40;1.65;;;9.00;94.50;;;;;;5052205;28;20049;-78
2021/12/16 12:40:28;;;;;;;5.30;1.85;;;9.00;94.50;;;;;;5053066;28;20047;-78
2021/12/16 12:42:56;;;;;;;3.28;1.67;;;9.10;94.50;;;;;;5054864;28;20036;-81
2021/12/16 12:45:28;;;;;;;6.03;1.80;;;9.10;94.50;;;;;;5054210;28;20231;-81
2021/12/16 12:48:15;;;;;;;4.55;1.80;;;9.10;94.50;;;;;;5072650;28;20131;-81
2021/12/16 12:51:13;;;;;;;3.58;2.05;;;9.00;94.40;;;;;;4992359;28;20047;-79
2021/12/16 12:53:51;;;;;;;5.65;2.08;;;9.00;94.40;;;;;;4931151;29;20048;-79
2021/12/16 12:56:22;;;;;;;3.20;1.60;;;9.10;94.50;;;;;;4917105;29;20095;-78
2021/12/16 12:59:00;;;;;;;3.08;1.50;;;9.10;94.50;;;;;;4904081;29;20083;-81
2021/12/16 13:01:53;;;;;;;7.40;1.92;;;9.10;94.70;;;;;;4917347;29;20055;-78
2021/12/16 13:04:30;;;;;;;3.20;1.70;;;9.00;94.50;;;;;;4903046;29;20071;-79
2021/12/16 13:07:02;;;;;;;3.05;1.63;;;9.00;94.50;;;;;;4919187;29;20126;-78
2021/12/16 13:10:01;;;;;;;2.53;1.13;;;9.00;94.50;;;;;;4903458;29;20052;-79
2021/12/16 13:12:48;;;;;;;4.78;1.50;;;9.00;94.60;;;;;;4922325;29;20075;-80
2021/12/16 13:26:03;;;;;;;3.58;1.30;;;9.10;94.60;;;;;;5028313;28;20092;-81
2021/12/16 13:28:55;;;;;;;2.88;1.48;;;9.10;94.50;;;;;;5024239;28;20040;-81
2021/12/16 13:31:52;;;;;;;2.47;1.30;;;9.10;94.40;;;;;;4950343;29;20128;-82
2021/12/16 13:34:33;;;;;;;2.90;1.23;;;9.00;94.40;;;;;;4954636;28;20050;-82
2021/12/16 13:37:23;;;;;;;3.15;1.50;;;9.00;94.50;;;;;;4972888;28;20098;-82
2021/12/16 13:39:55;;;;;;;3.05;1.40;;;9.10;94.60;;;;;;5002237;28;20042;-83
2021/12/16 13:42:22;;;;;;;2.88;1.50;;;9.10;94.60;;;;;;5013169;28;20050;-82
2021/12/16 13:44:59;;;;;;;2.35;1.30;;;9.00;94.50;;;;;;4977941;28;20147;-82
2021/12/16 13:47:41;;;;;;;3.92;1.40;;;9.00;94.60;;;;;;4940322;29;20044;-82
2021/12/16 14:10:15;;;;;;;5.68;2.10;;;8.70;94.90;;;;;;5027785;28;20069;-79
2021/12/16 14:14:08;;;;;;;5.78;1.90;;;8.70;94.70;;;;;;5001624;28;20527;-84
2021/12/16 14:16:31;;;;;;;3.10;1.52;;;8.80;94.70;;;;;;5057726;28;20147;-80
2021/12/16 14:31:09;;;;;;;3.33;1.30;;;8.70;94.70;;;;;;5097347;28;20101;-80
2021/12/16 14:34:29;;;;;;;2.65;1.27;;;8.80;94.70;;;;;;5113137;28;20035;-79
2021/12/16 14:37:16;;;;;;;3.28;1.55;;;8.70;94.60;;;;;;5112944;28;20485;-82
2021/12/16 14:47:42;;;;;;;2.95;1.40;;;8.80;94.70;;;;;;4895123;29;20451;-81
2021/12/16 14:50:11;;;;;;;2.88;1.35;;;8.80;94.60;;;;;;4894756;29;20127;-80
2021/12/16 14:52:42;;;;;;;2.42;1.23;;;8.80;94.70;;;;;;4859492;29;20048;-82
2021/12/16 14:55:12;;;;;;;3.67;1.40;;;8.80;94.60;;;;;;4847271;29;20040;-80
2021/12/16 14:58:22;;;;;;;2.33;1.30;;;8.80;94.60;;;;;;4862369;29;20064;-83
2021/12/16 15:00:56;;;;;;;3.42;1.45;;;8.80;94.60;;;;;;4867709;29;20788;-80
2021/12/16 15:03:27;;;;;;;3.35;1.33;;;8.80;94.70;;;;;;4892992;29;20044;-81
2021/12/16 15:06:07;;;;;;;3.75;1.60;;;8.70;94.70;;;;;;4914492;29;20168;-82
2021/12/16 15:08:44;;;;;;;3.40;1.63;;;8.80;94.70;;;;;;4897868;29;20103;-81
2021/12/16 15:12:25;;;;;;;2.83;1.38;;;8.80;94.60;;;;;;4899446;29;20059;-82
2021/12/16 15:15:27;;;;;;;3.03;1.38;;;8.80;94.60;;;;;;4911700;29;20044;-85
2021/12/16 15:39:47;;;;;;;2.85;1.27;;;8.70;94.60;;;;;;4977971;28;20081;-81
2021/12/16 15:45:25;;;;;;;2.92;1.30;;;8.70;94.70;;;;;;4976510;28;20077;-81
2021/12/16 15:51:22;;;;;;;4.55;1.40;;;8.80;94.70;;;;;;4948705;29;20050;-80
2021/12/16 15:53:55;;;;;;;5.05;1.90;;;8.60;94.60;;;;;;4934497;29;20063;-80
2021/12/16 15:56:25;;;;;;;3.92;1.70;;;8.70;94.70;;;;;;4961227;28;20518;-79
2021/12/16 15:58:55;;;;;;;4.63;2.00;;;8.70;94.70;;;;;;4969642;28;20143;-80
2021/12/16 16:01:32;;;;;;;4.28;1.85;;;8.60;94.60;;;;;;4977649;28;20079;-81
2021/12/16 16:04:04;;;;;;;3.65;1.60;;;8.60;94.60;;;;;;4974814;28;20052;-81
2021/12/16 16:06:30;;;;;;;2.40;1.35;;;8.60;94.70;;;;;;4957626;28;20145;-80
2021/12/16 16:09:00;;;;;;;2.97;1.40;;;8.60;94.70;;;;;;4976449;28;20150;-80
2021/12/16 16:11:40;;;;;;;2.42;1.45;;;8.70;94.70;;;;;;4957461;28;20049;-81
2021/12/16 16:14:06;;;;;;;4.43;1.52;;;8.70;94.70;;;;;;4950067;29;20042;-81
2021/12/16 16:27:04;;;;;;;2.72;1.40;;;8.60;94.60;;;;;;4848398;29;20052;-80
2021/12/16 16:29:33;;;;;;;2.00;1.02;;;8.60;94.70;;;;;;4898280;29;20040;-79
2021/12/16 16:35:56;;;;;;;1.98;1.20;;;8.60;94.70;;;;;;4895734;29;20048;-80
2021/12/16 16:38:27;;;;;;;2.45;1.10;;;8.60;94.70;;;;;;4897179;29;20044;-80
2021/12/16 16:40:56;;;;;;;3.30;1.45;;;8.60;94.60;;;;;;4866746;29;20048;-79
2021/12/16 16:43:28;;;;;;;2.33;1.13;;;8.70;94.70;;;;;;4885438;29;20489;-83
2021/12/16 16:46:04;;;;;;;3.95;1.50;;;8.60;94.60;;;;;;4869359;29;20071;-83
2021/12/16 16:48:45;;;;;;;2.28;1.20;;;8.60;94.70;;;;;;4931812;29;20046;-81
2021/12/16 16:52:14;;;;;;;2.58;1.38;;;8.60;94.60;;;;;;4904942;29;20056;-81
2021/12/16 16:58:44;;;;;;;3.25;1.50;;;8.60;94.60;;;;;;4903083;29;20035;-81
2021/12/16 17:03:05;;;;;;;2.65;1.20;;;8.60;94.60;;;;;;4934273;29;20135;-81
2021/12/16 17:12:24;;;;;;;3.10;1.50;;;8.50;94.60;;;;;;4913667;29;20521;-82
2021/12/16 17:18:49;;;;;;;5.32;1.88;;;8.60;94.60;;;;;;4937180;29;20044;-82
2021/12/16 17:21:25;;;;;;;3.38;1.80;;;8.40;94.50;;;;;;4920997;29;20035;-82
2021/12/16 17:24:06;;;;;;;3.35;1.70;;;8.50;94.60;;;;;;4907399;29;20039;-83
2021/12/16 17:26:48;;;;;;;3.25;1.70;;;8.60;94.60;;;;;;4898621;29;20056;-81
2021/12/16 17:29:25;;;;;;;2.25;1.25;;;8.60;94.60;;;;;;4895943;29;20049;-80
2021/12/16 17:32:22;;;;;;;3.15;1.55;;;8.60;94.60;;;;;;4886224;29;20096;-83
2021/12/16 17:35:00;;;;;;;3.20;1.48;;;8.60;94.60;;;;;;4864074;29;20052;-83
2021/12/16 17:37:49;;;;;;;2.03;1.20;;;8.60;94.60;;;;;;4900546;29;20052;-83
2021/12/16 17:40:26;;;;;;;2.50;1.38;;;8.70;94.60;;;;;;4882772;29;20053;-81
2021/12/16 17:42:57;;;;;;;2.95;1.40;;;8.70;94.60;;;;;;4952832;29;20050;-81
2021/12/16 17:45:28;;;;;;;2.30;1.23;;;8.70;94.60;;;;;;4962567;28;20051;-81
2021/12/16 17:48:00;;;;;;;3.67;1.45;;;8.70;94.60;;;;;;4956439;28;20046;-81
2021/12/16 17:50:35;;;;;;;3.40;1.60;;;8.70;94.50;;;;;;4917248;29;20051;-82
2021/12/16 17:53:01;;;;;;;3.55;1.80;;;8.70;94.60;;;;;;4921485;29;20043;-82
2021/12/16 17:55:35;;;;;;;2.95;1.30;;;8.70;94.60;;;;;;4921787;29;20040;-82
2021/12/16 17:58:09;;;;;;;3.10;1.70;;;8.70;94.50;;;;;;4931572;28;20078;-83
2021/12/16 18:00:45;;;;;;;3.50;1.67;;;8.80;94.60;;;;;;4956560;28;20492;-83
2021/12/16 18:03:23;;;;;;;2.33;1.00;;;8.80;94.50;;;;;;4972223;28;20066;-84
2021/12/16 18:05:52;;;;;;;2.35;1.40;;;8.70;94.50;;;;;;5010034;28;20050;-83
2021/12/16 18:08:33;;;;;;;2.72;1.38;;;8.80;94.50;;;;;;4995081;28;20079;-83
2021/12/16 18:11:24;;;;;;;2.78;1.50;;;8.80;94.50;;;;;;5011104;28;20036;-84
2021/12/16 18:14:02;;;;;;;3.03;1.23;;;8.80;94.50;;;;;;5049507;28;20140;-83
2021/12/16 18:16:39;;;;;;;3.25;1.17;;;8.80;94.50;;;;;;5050658;28;20063;-83
2021/12/16 18:19:26;;;;;;;1.80;1.17;;;8.80;94.50;;;;;;5034276;28;20055;-84
2021/12/16 18:21:55;;;;;;;1.80;1.02;;;8.80;94.50;;;;;;5034110;28;20474;-84
2021/12/16 18:24:35;;;;;;;2.35;1.25;;;8.80;94.50;;;;;;5036362;28;20560;-83
2021/12/16 18:27:01;;;;;;;2.67;1.15;;;8.80;94.50;;;;;;5046226;28;20047;-83
2021/12/16 18:29:32;;;;;;;3.30;1.35;;;8.80;94.50;;;;;;5078387;28;20435;-83
2021/12/16 18:31:58;;;;;;;4.03;1.48;;;8.80;94.50;;;;;;5096915;28;20032;-83